sensor_id;sensor_type;location;lat;lon;timestamp;pressure;altitude;pressure_sealevel;temperature;humidity
49216;BME280;45943;53.148;8.204;2023-08-17T00:00:10;102235.31;;;21.76;100.00
49216;BME280;45943;53.148;8.204;2023-08-17T00:02:39;102232.41;;;21.78;100.00
49216;BME280;45943;53.148;8.204;2023-08-17T00:05:06;102224.38;;;21.76;100.00
49216;BME280;45943;53.148;8.204;2023-08-17T00:07:32;102234.97;;;21.80;100.00
49216;BME280;45943;53.148;8.204;2023-08-17T00:09:58;102236.00;;;21.79;100.00
49216;BME280;45943;53.148;8.204;2023-08-17T00:12:25;102237.50;;;21.73;100.00
49216;BME280;45943;53.148;8.204;2023-08-17T00:14:51;102232.53;;;21.68;100.00
49216;BME280;45943;53.148;8.204;2023-08-17T00:17:18;102240.72;;;21.68;100.00
49216;BME280;45943;53.148;8.204;2023-08-17T00:19:45;102240.59;;;21.78;100.00
49216;BME280;45943;53.148;8.204;2023-08-17T00:22:11;102236.38;;;21.84;100.00
49216;BME280;45943;53.148;8.204;2023-08-17T00:24:37;102239.13;;;21.92;100.00
49216;BME280;45943;53.148;8.204;2023-08-17T00:27:03;102242.31;;;21.79;100.00
49216;BME280;45943;53.148;8.204;2023-08-17T00:29:29;102245.19;;;21.77;100.00
49216;BME280;45943;53.148;8.204;2023-08-17T00:31:56;102235.13;;;21.78;100.00
49216;BME280;45943;53.148;8.204;2023-08-17T00:34:22;102238.19;;;21.75;100.00
49216;BME280;45943;53.148;8.204;2023-08-17T00:36:47;102234.97;;;21.80;100.00
49216;BME280;45943;53.148;8.204;2023-08-17T00:39:14;102235.66;;;21.82;100.00
49216;BME280;45943;53.148;8.204;2023-08-17T00:41:40;102239.56;;;21.79;100.00
49216;BME280;45943;53.148;8.204;2023-08-17T00:44:06;102228.19;;;21.84;100.00
49216;BME280;45943;53.148;8.204;2023-08-17T00:46:32;102230.00;;;21.75;100.00
49216;BME280;45943;53.148;8.204;2023-08-17T00:48:58;102226.59;;;21.81;100.00
49216;BME280;45943;53.148;8.204;2023-08-17T00:51:25;102219.25;;;21.82;100.00
49216;BME280;45943;53.148;8.204;2023-08-17T00:53:56;102219.97;;;21.84;100.00
49216;BME280;45943;53.148;8.204;2023-08-17T00:56:25;102218.41;;;21.81;100.00
49216;BME280;45943;53.148;8.204;2023-08-17T00:58:51;102217.72;;;21.79;100.00
49216;BME280;45943;53.148;8.204;2023-08-17T01:01:18;102212.03;;;21.72;100.00
49216;BME280;45943;53.148;8.204;2023-08-17T01:03:45;102209.19;;;21.74;100.00
49216;BME280;45943;53.148;8.204;2023-08-17T01:06:11;102203.91;;;21.81;100.00
49216;BME280;45943;53.148;8.204;2023-08-17T01:08:37;102201.72;;;21.84;100.00
49216;BME280;45943;53.148;8.204;2023-08-17T01:13:49;102208.06;;;21.93;100.00
49216;BME280;45943;53.148;8.204;2023-08-17T01:16:24;102195.09;;;21.95;100.00
49216;BME280;45943;53.148;8.204;2023-08-17T01:18:55;102202.44;;;21.94;100.00
49216;BME280;45943;53.148;8.204;2023-08-17T01:21:24;102198.13;;;21.92;100.00
49216;BME280;45943;53.148;8.204;2023-08-17T01:23:57;102202.56;;;21.85;100.00
49216;BME280;45943;53.148;8.204;2023-08-17T01:26:24;102195.88;;;21.79;100.00
49216;BME280;45943;53.148;8.204;2023-08-17T01:28:50;102193.81;;;21.81;100.00
49216;BME280;45943;53.148;8.204;2023-08-17T01:31:30;102194.84;;;21.80;100.00
49216;BME280;45943;53.148;8.204;2023-08-17T01:34:08;102192.97;;;21.81;100.00
49216;BME280;45943;53.148;8.204;2023-08-17T01:36:46;102194.19;;;21.86;100.00
49216;BME280;45943;53.148;8.204;2023-08-17T01:39:19;102196.59;;;21.89;100.00
49216;BME280;45943;53.148;8.204;2023-08-17T01:41:51;102191.09;;;21.81;100.00
49216;BME280;45943;53.148;8.204;2023-08-17T01:44:22;102191.44;;;21.78;100.00
49216;BME280;45943;53.148;8.204;2023-08-17T01:46:48;102186.81;;;21.79;100.00
49216;BME280;45943;53.148;8.204;2023-08-17T01:49:14;102185.97;;;21.78;100.00
49216;BME280;45943;53.148;8.204;2023-08-17T01:51:40;102187.50;;;21.81;100.00
49216;BME280;45943;53.148;8.204;2023-08-17T01:54:06;102193.50;;;21.84;100.00
49216;BME280;45943;53.148;8.204;2023-08-17T01:56:32;102193.88;;;21.89;100.00
49216;BME280;45943;53.148;8.204;2023-08-17T01:58:58;102192.66;;;21.84;100.00
49216;BME280;45943;53.148;8.204;2023-08-17T02:01:24;102193.00;;;21.89;100.00
49216;BME280;45943;53.148;8.204;2023-08-17T02:03:51;102194.03;;;21.88;100.00
49216;BME280;45943;53.148;8.204;2023-08-17T02:06:17;102196.38;;;21.83;100.00
49216;BME280;45943;53.148;8.204;2023-08-17T02:08:44;102196.72;;;21.80;100.00
49216;BME280;45943;53.148;8.204;2023-08-17T02:11:10;102191.44;;;21.78;100.00
49216;BME280;45943;53.148;8.204;2023-08-17T02:13:36;102199.97;;;21.75;100.00
49216;BME280;45943;53.148;8.204;2023-08-17T02:16:03;102197.91;;;21.77;100.00
49216;BME280;45943;53.148;8.204;2023-08-17T02:18:30;102202.53;;;21.76;100.00
49216;BME280;45943;53.148;8.204;2023-08-17T02:20:57;102199.44;;;21.80;100.00
49216;BME280;45943;53.148;8.204;2023-08-17T02:23:23;102194.53;;;21.83;100.00
49216;BME280;45943;53.148;8.204;2023-08-17T02:25:49;102191.94;;;21.82;100.00
49216;BME280;45943;53.148;8.204;2023-08-17T02:28:15;102191.44;;;21.78;100.00
49216;BME280;45943;53.148;8.204;2023-08-17T02:30:41;102180.97;;;21.65;100.00
49216;BME280;45943;53.148;8.204;2023-08-17T02:33:09;102188.59;;;21.62;100.00
49216;BME280;45943;53.148;8.204;2023-08-17T02:35:35;102194.75;;;21.56;100.00
49216;BME280;45943;53.148;8.204;2023-08-17T02:38:01;102191.47;;;21.52;100.00
49216;BME280;45943;53.148;8.204;2023-08-17T02:40:27;102189.56;;;21.44;100.00
49216;BME280;45943;53.148;8.204;2023-08-17T02:42:53;102188.72;;;21.52;100.00
49216;BME280;45943;53.148;8.204;2023-08-17T02:45:19;102181.50;;;21.43;100.00
49216;BME280;45943;53.148;8.204;2023-08-17T02:47:45;102176.59;;;21.46;100.00
49216;BME280;45943;53.148;8.204;2023-08-17T02:50:11;102176.59;;;21.46;100.00
49216;BME280;45943;53.148;8.204;2023-08-17T02:52:37;102169.63;;;21.52;100.00
49216;BME280;45943;53.148;8.204;2023-08-17T02:55:03;102163.41;;;21.42;100.00
49216;BME280;45943;53.148;8.204;2023-08-17T02:57:32;102172.34;;;21.44;100.00
49216;BME280;45943;53.148;8.204;2023-08-17T02:59:58;102168.06;;;21.50;100.00
49216;BME280;45943;53.148;8.204;2023-08-17T03:02:24;102173.06;;;21.54;100.00
49216;BME280;45943;53.148;8.204;2023-08-17T03:04:50;102178.03;;;21.59;100.00
49216;BME280;45943;53.148;8.204;2023-08-17T03:07:16;102166.94;;;21.60;100.00
49216;BME280;45943;53.148;8.204;2023-08-17T03:09:42;102171.03;;;21.56;100.00
49216;BME280;45943;53.148;8.204;2023-08-17T03:12:08;102170.47;;;21.53;100.00
49216;BME280;45943;53.148;8.204;2023-08-17T03:14:33;102170.16;;;21.56;100.00
49216;BME280;45943;53.148;8.204;2023-08-17T03:16:59;102169.75;;;21.42;100.00
49216;BME280;45943;53.148;8.204;2023-08-17T03:19:25;102172.63;;;21.41;100.00
49216;BME280;45943;53.148;8.204;2023-08-17T03:21:51;102167.72;;;21.44;100.00
49216;BME280;45943;53.148;8.204;2023-08-17T03:24:17;102160.91;;;21.48;100.00
49216;BME280;45943;53.148;8.204;2023-08-17T03:26:43;102169.44;;;21.45;100.00
49216;BME280;45943;53.148;8.204;2023-08-17T03:29:09;102170.75;;;21.41;100.00
49216;BME280;45943;53.148;8.204;2023-08-17T03:31:35;102168.75;;;21.43;100.00
49216;BME280;45943;53.148;8.204;2023-08-17T03:34:01;102159.66;;;21.43;100.00
49216;BME280;45943;53.148;8.204;2023-08-17T03:36:27;102157.09;;;21.41;100.00
49216;BME280;45943;53.148;8.204;2023-08-17T03:38:53;102162.25;;;21.44;100.00
49216;BME280;45943;53.148;8.204;2023-08-17T03:41:20;102163.41;;;21.42;100.00
49216;BME280;45943;53.148;8.204;2023-08-17T03:43:49;102166.38;;;21.48;100.00
49216;BME280;45943;53.148;8.204;2023-08-17T03:46:15;102169.91;;;21.41;100.00
49216;BME280;45943;53.148;8.204;2023-08-17T03:48:41;102164.28;;;21.42;100.00
49216;BME280;45943;53.148;8.204;2023-08-17T03:51:07;102170.59;;;21.43;100.00
49216;BME280;45943;53.148;8.204;2023-08-17T03:53:33;102159.31;;;21.38;100.00
49216;BME280;45943;53.148;8.204;2023-08-17T03:55:59;102162.56;;;21.41;100.00
49216;BME280;45943;53.148;8.204;2023-08-17T03:58:25;102162.56;;;21.41;100.00
49216;BME280;45943;53.148;8.204;2023-08-17T04:00:58;102163.41;;;21.42;100.00
49216;BME280;45943;53.148;8.204;2023-08-17T04:03:24;102155.94;;;21.44;100.00
49216;BME280;45943;53.148;8.204;2023-08-17T04:05:50;102151.88;;;21.48;100.00
49216;BME280;45943;53.148;8.204;2023-08-17T04:08:16;102147.25;;;21.48;100.00
49216;BME280;45943;53.148;8.204;2023-08-17T04:10:42;102144.13;;;21.35;100.00
49216;BME280;45943;53.148;8.204;2023-08-17T04:13:08;102144.59;;;21.31;100.00
49216;BME280;45943;53.148;8.204;2023-08-17T04:15:34;102143.75;;;21.30;100.00
49216;BME280;45943;53.148;8.204;2023-08-17T04:18:00;102145.78;;;21.28;100.00
49216;BME280;45943;53.148;8.204;2023-08-17T04:20:26;102143.13;;;21.18;100.00
49216;BME280;45943;53.148;8.204;2023-08-17T04:22:52;102158.31;;;21.21;100.00
49216;BME280;45943;53.148;8.204;2023-08-17T04:25:18;102155.28;;;21.24;100.00
49216;BME280;45943;53.148;8.204;2023-08-17T04:27:44;102155.84;;;21.28;100.00
49216;BME280;45943;53.148;8.204;2023-08-17T04:30:11;102160.75;;;21.24;100.00
49216;BME280;45943;53.148;8.204;2023-08-17T04:32:37;102158.88;;;21.25;100.00
49216;BME280;45943;53.148;8.204;2023-08-17T04:35:03;102157.47;;;21.20;100.00
49216;BME280;45943;53.148;8.204;2023-08-17T04:37:29;102163.09;;;21.19;100.00
49216;BME280;45943;53.148;8.204;2023-08-17T04:39:55;102152.41;;;21.26;100.00
49216;BME280;45943;53.148;8.204;2023-08-17T04:42:21;102159.88;;;21.24;100.00
49216;BME280;45943;53.148;8.204;2023-08-17T04:44:47;102157.72;;;21.27;100.00
49216;BME280;45943;53.148;8.204;2023-08-17T04:47:13;102143.75;;;21.30;100.00
49216;BME280;45943;53.148;8.204;2023-08-17T04:49:39;102155.13;;;21.26;100.00
49216;BME280;45943;53.148;8.204;2023-08-17T04:52:05;102160.88;;;21.23;100.00
49216;BME280;45943;53.148;8.204;2023-08-17T04:54:31;102163.09;;;21.19;100.00
49216;BME280;45943;53.148;8.204;2023-08-17T04:56:57;102155.06;;;21.17;100.00
49216;BME280;45943;53.148;8.204;2023-08-17T04:59:23;102157.28;;;21.14;100.00
49216;BME280;45943;53.148;8.204;2023-08-17T05:01:49;102154.22;;;21.17;100.00
49216;BME280;45943;53.148;8.204;2023-08-17T05:04:15;102150.25;;;21.11;100.00
49216;BME280;45943;53.148;8.204;2023-08-17T05:06:41;102150.47;;;21.18;100.00
49216;BME280;45943;53.148;8.204;2023-08-17T05:09:08;102154.56;;;21.22;100.00
49216;BME280;45943;53.148;8.204;2023-08-17T05:11:35;102154.75;;;21.20;100.00
49216;BME280;45943;53.148;8.204;2023-08-17T05:14:01;102157.13;;;21.15;100.00
49216;BME280;45943;53.148;8.204;2023-08-17T05:16:27;102157.53;;;21.03;100.00
49216;BME280;45943;53.148;8.204;2023-08-17T05:18:53;102157.06;;;21.07;100.00
49216;BME280;45943;53.148;8.204;2023-08-17T05:21:19;102163.13;;;21.01;100.00
49216;BME280;45943;53.148;8.204;2023-08-17T05:23:45;102158.06;;;21.06;100.00
49216;BME280;45943;53.148;8.204;2023-08-17T05:26:11;102157.91;;;21.08;100.00
49216;BME280;45943;53.148;8.204;2023-08-17T05:28:37;102168.50;;;21.11;100.00
49216;BME280;45943;53.148;8.204;2023-08-17T05:31:04;102165.59;;;21.12;100.00
49216;BME280;45943;53.148;8.204;2023-08-17T05:33:33;102160.47;;;21.09;100.00
49216;BME280;45943;53.148;8.204;2023-08-17T05:35:59;102153.78;;;21.04;100.00
49216;BME280;45943;53.148;8.204;2023-08-17T05:38:25;102148.47;;;21.02;100.00
49216;BME280;45943;53.148;8.204;2023-08-17T05:40:55;102152.44;;;21.08;100.00
49216;BME280;45943;53.148;8.204;2023-08-17T05:43:22;102155.34;;;21.06;100.00
49216;BME280;45943;53.148;8.204;2023-08-17T05:45:48;102149.81;;;20.98;100.00
49216;BME280;45943;53.148;8.204;2023-08-17T05:48:14;102162.44;;;20.99;100.00
49216;BME280;45943;53.148;8.204;2023-08-17T05:50:43;102161.94;;;21.04;100.00
49216;BME280;45943;53.148;8.204;2023-08-17T05:53:09;102158.75;;;21.08;100.00
49216;BME280;45943;53.148;8.204;2023-08-17T05:55:35;102158.59;;;21.10;100.00
49216;BME280;45943;53.148;8.204;2023-08-17T05:58:01;102159.38;;;21.02;100.00
49216;BME280;45943;53.148;8.204;2023-08-17T06:00:29;102163.81;;;21.03;100.00
49216;BME280;45943;53.148;8.204;2023-08-17T06:02:55;102165.19;;;20.99;100.00
49216;BME280;45943;53.148;8.204;2023-08-17T06:05:29;102167.91;;;20.99;100.00
49216;BME280;45943;53.148;8.204;2023-08-17T06:07:56;102163.13;;;21.01;100.00
49216;BME280;45943;53.148;8.204;2023-08-17T06:10:25;102166.53;;;20.95;100.00
49216;BME280;45943;53.148;8.204;2023-08-17T06:12:55;102169.25;;;20.95;100.00
49216;BME280;45943;53.148;8.204;2023-08-17T06:15:21;102176.59;;;20.95;100.00
49216;BME280;45943;53.148;8.204;2023-08-17T06:17:48;102183.59;;;20.97;100.00
49216;BME280;45943;53.148;8.204;2023-08-17T06:20:17;102179.34;;;21.03;100.00
49216;BME280;45943;53.148;8.204;2023-08-17T06:22:44;102177.28;;;20.97;100.00
49216;BME280;45943;53.148;8.204;2023-08-17T06:25:10;102175.75;;;21.02;100.00
49216;BME280;45943;53.148;8.204;2023-08-17T06:27:36;102177.78;;;21.00;100.00
49216;BME280;45943;53.148;8.204;2023-08-17T06:30:03;102170.63;;;20.99;100.00
49216;BME280;45943;53.148;8.204;2023-08-17T06:32:29;102182.94;;;21.03;100.00
49216;BME280;45943;53.148;8.204;2023-08-17T06:34:56;102179.56;;;21.09;100.00
49216;BME280;45943;53.148;8.204;2023-08-17T06:37:22;102171.38;;;21.09;100.00
49216;BME280;45943;53.148;8.204;2023-08-17T06:39:49;102176.16;;;21.07;100.00
49216;BME280;45943;53.148;8.204;2023-08-17T06:42:15;102184.50;;;21.06;100.00
49216;BME280;45943;53.148;8.204;2023-08-17T06:44:41;102186.41;;;21.13;100.00
49216;BME280;45943;53.148;8.204;2023-08-17T06:47:07;102189.63;;;21.09;100.00
49216;BME280;45943;53.148;8.204;2023-08-17T06:49:33;102189.47;;;21.10;100.00
49216;BME280;45943;53.148;8.204;2023-08-17T06:51:59;102186.75;;;21.10;100.00
49216;BME280;45943;53.148;8.204;2023-08-17T06:54:25;102195.47;;;21.14;100.00
49216;BME280;45943;53.148;8.204;2023-08-17T06:56:51;102197.88;;;21.17;100.00
49216;BME280;45943;53.148;8.204;2023-08-17T06:59:17;102199.06;;;21.14;100.00
49216;BME280;45943;53.148;8.204;2023-08-17T07:01:43;102201.94;;;21.13;100.00
49216;BME280;45943;53.148;8.204;2023-08-17T07:04:09;102196.44;;;21.05;100.00
49216;BME280;45943;53.148;8.204;2023-08-17T07:06:35;102207.19;;;21.06;100.00
49216;BME280;45943;53.148;8.204;2023-08-17T07:09:01;102195.31;;;21.15;100.00
49216;BME280;45943;53.148;8.204;2023-08-17T07:11:30;102197.66;;;21.10;100.00
49216;BME280;45943;53.148;8.204;2023-08-17T07:13:56;102206.34;;;21.06;100.00
49216;BME280;45943;53.148;8.204;2023-08-17T07:16:22;102203.66;;;21.14;100.00
49216;BME280;45943;53.148;8.204;2023-08-17T07:18:49;102202.78;;;21.13;100.00
49216;BME280;45943;53.148;8.204;2023-08-17T07:21:15;102203.19;;;21.18;100.00
49216;BME280;45943;53.148;8.204;2023-08-17T07:23:43;102200.03;;;21.31;100.00
49216;BME280;45943;53.148;8.204;2023-08-17T07:26:10;102201.28;;;21.37;100.00
49216;BME280;45943;53.148;8.204;2023-08-17T07:28:36;102199.28;;;21.47;100.00
49216;BME280;45943;53.148;8.204;2023-08-17T07:31:02;102204.94;;;21.45;100.00
49216;BME280;45943;53.148;8.204;2023-08-17T07:33:28;102200.25;;;21.38;100.00
49216;BME280;45943;53.148;8.204;2023-08-17T07:35:54;102206.91;;;21.35;100.00
49216;BME280;45943;53.148;8.204;2023-08-17T07:38:22;102207.44;;;21.39;100.00
49216;BME280;45943;53.148;8.204;2023-08-17T07:40:48;102207.59;;;21.37;100.00
49216;BME280;45943;53.148;8.204;2023-08-17T07:43:14;102207.75;;;21.36;100.00
49216;BME280;45943;53.148;8.204;2023-08-17T07:45:40;102209.47;;;21.37;100.00
49216;BME280;45943;53.148;8.204;2023-08-17T07:48:06;102208.06;;;21.33;100.00
49216;BME280;45943;53.148;8.204;2023-08-17T07:50:32;102209.41;;;21.29;100.00
49216;BME280;45943;53.148;8.204;2023-08-17T07:52:58;102210.28;;;21.29;100.00
49216;BME280;45943;53.148;8.204;2023-08-17T07:55:25;102204.41;;;21.24;100.00
49216;BME280;45943;53.148;8.204;2023-08-17T07:57:51;102200.53;;;21.09;100.00
49216;BME280;45943;53.148;8.204;2023-08-17T08:00:18;102200.66;;;20.99;100.00
49216;BME280;45943;53.148;8.204;2023-08-17T08:02:44;102192.56;;;20.89;100.00
49216;BME280;45943;53.148;8.204;2023-08-17T08:05:10;102191.69;;;20.89;100.00
49216;BME280;45943;53.148;8.204;2023-08-17T08:07:36;102192.19;;;20.84;100.00
49216;BME280;45943;53.148;8.204;2023-08-17T08:10:02;102191.84;;;20.87;100.00
49216;BME280;45943;53.148;8.204;2023-08-17T08:12:28;102191.00;;;20.87;100.00
49216;BME280;45943;53.148;8.204;2023-08-17T08:14:54;102186.25;;;20.89;100.00
49216;BME280;45943;53.148;8.204;2023-08-17T08:17:20;102184.38;;;20.89;100.00
49216;BME280;45943;53.148;8.204;2023-08-17T08:19:46;102191.38;;;20.92;100.00
49216;BME280;45943;53.148;8.204;2023-08-17T08:22:11;102188.47;;;20.94;100.00
49216;BME280;45943;53.148;8.204;2023-08-17T08:24:37;102196.13;;;20.90;100.00
49216;BME280;45943;53.148;8.204;2023-08-17T08:27:06;102190.06;;;20.96;100.00
49216;BME280;45943;53.148;8.204;2023-08-17T08:29:32;102186.16;;;20.99;100.00
49216;BME280;45943;53.148;8.204;2023-08-17T08:31:59;102196.72;;;21.02;100.00
49216;BME280;45943;53.148;8.204;2023-08-17T08:34:28;102192.97;;;21.03;100.00
49216;BME280;45943;53.148;8.204;2023-08-17T08:36:54;102186.84;;;21.01;100.00
49216;BME280;45943;53.148;8.204;2023-08-17T08:39:20;102195.19;;;20.99;100.00
49216;BME280;45943;53.148;8.204;2023-08-17T08:41:46;102186.31;;;20.97;100.00
49216;BME280;45943;53.148;8.204;2023-08-17T08:44:13;102189.91;;;20.98;100.00
49216;BME280;45943;53.148;8.204;2023-08-17T08:46:40;102189.47;;;21.10;100.00
49216;BME280;45943;53.148;8.204;2023-08-17T08:49:08;102187.66;;;21.19;100.00
49216;BME280;45943;53.148;8.204;2023-08-17T08:51:37;102182.59;;;21.24;100.00
49216;BME280;45943;53.148;8.204;2023-08-17T08:54:11;102187.88;;;21.26;100.00
49216;BME280;45943;53.148;8.204;2023-08-17T08:56:41;102188.28;;;21.31;100.00
49216;BME280;45943;53.148;8.204;2023-08-17T08:59:10;102188.66;;;21.36;100.00
49216;BME280;45943;53.148;8.204;2023-08-17T09:01:37;102184.75;;;21.38;100.00
49216;BME280;45943;53.148;8.204;2023-08-17T09:04:04;102187.84;;;21.43;100.00
49216;BME280;45943;53.148;8.204;2023-08-17T09:06:30;102187.31;;;21.40;100.00
49216;BME280;45943;53.148;8.204;2023-08-17T09:08:58;102187.31;;;21.40;100.00
49216;BME280;45943;53.148;8.204;2023-08-17T09:11:27;102185.69;;;21.55;100.00
49216;BME280;45943;53.148;8.204;2023-08-17T09:13:53;102185.44;;;21.74;100.00
49216;BME280;45943;53.148;8.204;2023-08-17T09:16:20;102194.69;;;21.82;100.00
49216;BME280;45943;53.148;8.204;2023-08-17T09:18:46;102185.28;;;21.76;100.00
49216;BME280;45943;53.148;8.204;2023-08-17T09:21:22;102181.53;;;21.77;100.00
49216;BME280;45943;53.148;8.204;2023-08-17T09:23:52;102194.38;;;21.85;100.00
49216;BME280;45943;53.148;8.204;2023-08-17T09:26:22;102186.91;;;21.95;100.00
49216;BME280;45943;53.148;8.204;2023-08-17T09:28:51;102196.59;;;21.89;100.00
49216;BME280;45943;53.148;8.204;2023-08-17T09:31:20;102202.19;;;21.80;100.00
49216;BME280;45943;53.148;8.204;2023-08-17T09:33:50;102191.63;;;21.85;100.00
49216;BME280;45943;53.148;8.204;2023-08-17T09:36:20;102190.78;;;21.92;100.00
49216;BME280;45943;53.148;8.204;2023-08-17T09:38:52;102198.34;;;21.98;100.00
49216;BME280;45943;53.148;8.204;2023-08-17T09:41:18;102201.94;;;21.99;100.00
49216;BME280;45943;53.148;8.204;2023-08-17T09:43:45;102197.47;;;21.98;100.00
49216;BME280;45943;53.148;8.204;2023-08-17T09:46:12;102183.13;;;21.96;100.00
49216;BME280;45943;53.148;8.204;2023-08-17T09:48:38;102193.72;;;21.99;100.00
49216;BME280;45943;53.148;8.204;2023-08-17T09:51:04;102186.91;;;21.95;100.00
49216;BME280;45943;53.148;8.204;2023-08-17T09:53:34;102184.69;;;21.98;100.00
49216;BME280;45943;53.148;8.204;2023-08-17T09:56:02;102175.16;;;22.11;100.00
49216;BME280;45943;53.148;8.204;2023-08-17T09:58:30;102177.22;;;22.09;100.00
49216;BME280;45943;53.148;8.204;2023-08-17T10:00:56;102172.13;;;22.14;100.00
49216;BME280;45943;53.148;8.204;2023-08-17T10:03:25;102165.28;;;22.18;100.00
49216;BME280;45943;53.148;8.204;2023-08-17T10:06:04;102172.28;;;22.20;100.00
49216;BME280;45943;53.148;8.204;2023-08-17T10:08:45;102175.88;;;22.21;100.00
49216;BME280;45943;53.148;8.204;2023-08-17T10:11:16;102171.44;;;22.20;100.00
49216;BME280;45943;53.148;8.204;2023-08-17T10:16:23;102174.72;;;22.31;100.00
49216;BME280;45943;53.148;8.204;2023-08-17T10:18:55;102171.31;;;22.38;100.00
49216;BME280;45943;53.148;8.204;2023-08-17T10:21:37;102178.31;;;22.40;100.00
49216;BME280;45943;53.148;8.204;2023-08-17T10:24:08;102176.78;;;22.38;100.00
49216;BME280;45943;53.148;8.204;2023-08-17T10:26:36;102169.44;;;22.38;100.00
49216;BME280;45943;53.148;8.204;2023-08-17T10:29:02;102166.88;;;22.45;100.00
49216;BME280;45943;53.148;8.204;2023-08-17T10:31:29;102156.44;;;22.48;100.00
49216;BME280;45943;53.148;8.204;2023-08-17T10:33:58;102153.03;;;22.46;100.00
49216;BME280;45943;53.148;8.204;2023-08-17T10:36:25;102156.63;;;22.39;100.00
49216;BME280;45943;53.148;8.204;2023-08-17T10:42:05;102154.56;;;22.41;100.00
49216;BME280;45943;53.148;8.204;2023-08-17T10:47:19;102160.56;;;22.52;100.00
49216;BME280;45943;53.148;8.204;2023-08-17T10:49:47;102152.03;;;22.55;100.00
49216;BME280;45943;53.148;8.204;2023-08-17T10:52:14;102145.34;;;22.58;100.00
49216;BME280;45943;53.148;8.204;2023-08-17T10:54:41;102158.16;;;22.57;100.00
49216;BME280;45943;53.148;8.204;2023-08-17T11:02:39;102160.59;;;22.85;100.00
49216;BME280;45943;53.148;8.204;2023-08-17T11:05:05;102155.44;;;22.74;100.00
49216;BME280;45943;53.148;8.204;2023-08-17T11:07:42;102148.59;;;22.70;100.00
49216;BME280;45943;53.148;8.204;2023-08-17T11:10:10;102149.63;;;22.69;100.00
49216;BME280;45943;53.148;8.204;2023-08-17T11:12:45;102147.91;;;22.68;100.00
49216;BME280;45943;53.148;8.204;2023-08-17T11:15:11;102145.00;;;22.77;100.00
49216;BME280;45943;53.148;8.204;2023-08-17T11:17:37;102149.66;;;22.85;100.00
49216;BME280;45943;53.148;8.204;2023-08-17T11:20:04;102142.13;;;22.87;100.00
49216;BME280;45943;53.148;8.204;2023-08-17T11:22:30;102146.56;;;22.88;100.00
49216;BME280;45943;53.148;8.204;2023-08-17T11:24:57;102138.34;;;22.88;100.00
49216;BME280;45943;53.148;8.204;2023-08-17T11:27:24;102142.28;;;23.02;100.00
49216;BME280;45943;53.148;8.204;2023-08-17T11:29:51;102136.28;;;23.14;100.00
49216;BME280;45943;53.148;8.204;2023-08-17T11:32:17;102137.09;;;23.31;100.00
49216;BME280;45943;53.148;8.204;2023-08-17T11:34:43;102132.53;;;23.63;100.00
49216;BME280;45943;53.148;8.204;2023-08-17T11:37:12;102129.84;;;23.86;100.00
49216;BME280;45943;53.148;8.204;2023-08-17T11:39:38;102126.19;;;24.01;100.00
49216;BME280;45943;53.148;8.204;2023-08-17T11:42:04;102119.53;;;24.50;100.00
49216;BME280;45943;53.148;8.204;2023-08-17T11:44:30;102131.13;;;24.75;100.00
49216;BME280;45943;53.148;8.204;2023-08-17T11:46:56;102127.00;;;24.79;100.00
49216;BME280;45943;53.148;8.204;2023-08-17T11:49:22;102129.34;;;24.82;100.00
49216;BME280;45943;53.148;8.204;2023-08-17T11:51:51;102124.44;;;24.54;100.00
49216;BME280;45943;53.148;8.204;2023-08-17T11:54:17;102121.41;;;24.49;100.00
49216;BME280;45943;53.148;8.204;2023-08-17T11:56:43;102126.88;;;24.87;100.00
49216;BME280;45943;53.148;8.204;2023-08-17T11:59:09;102117.16;;;24.84;100.00
49216;BME280;45943;53.148;8.204;2023-08-17T12:01:45;102118.91;;;25.15;100.00
49216;BME280;45943;53.148;8.204;2023-08-17T12:04:11;102121.97;;;24.82;100.00
49216;BME280;45943;53.148;8.204;2023-08-17T12:06:39;102130.94;;;24.39;100.00
49216;BME280;45943;53.148;8.204;2023-08-17T12:09:09;102121.59;;;24.17;100.00
49216;BME280;45943;53.148;8.204;2023-08-17T12:11:35;102115.22;;;24.01;100.00
49216;BME280;45943;53.148;8.204;2023-08-17T12:14:07;102124.72;;;23.91;100.00
49216;BME280;45943;53.148;8.204;2023-08-17T12:16:44;102120.38;;;23.96;100.00
49216;BME280;45943;53.148;8.204;2023-08-17T12:19:12;102123.56;;;24.08;100.00
49216;BME280;45943;53.148;8.204;2023-08-17T12:21:40;102122.69;;;24.08;100.00
49216;BME280;45943;53.148;8.204;2023-08-17T12:24:08;102115.75;;;23.97;100.00
49216;BME280;45943;53.148;8.204;2023-08-17T12:26:35;102127.94;;;23.94;100.00
49216;BME280;45943;53.148;8.204;2023-08-17T12:29:04;102120.38;;;23.96;100.00
49216;BME280;45943;53.148;8.204;2023-08-17T12:31:31;102114.41;;;23.93;100.00
49216;BME280;45943;53.148;8.204;2023-08-17T12:33:57;102122.53;;;23.78;100.00
49216;BME280;45943;53.148;8.204;2023-08-17T12:36:23;102119.34;;;23.58;100.00
49216;BME280;45943;53.148;8.204;2023-08-17T12:38:51;102125.69;;;23.59;100.00
49216;BME280;45943;53.148;8.204;2023-08-17T12:41:17;102126.22;;;23.62;100.00
49216;BME280;45943;53.148;8.204;2023-08-17T12:43:43;102134.91;;;23.58;100.00
49216;BME280;45943;53.148;8.204;2023-08-17T12:46:09;102124.03;;;23.41;100.00
49216;BME280;45943;53.148;8.204;2023-08-17T12:48:37;102132.09;;;23.35;100.00
49216;BME280;45943;53.148;8.204;2023-08-17T12:51:04;102131.66;;;23.07;100.00
49216;BME280;45943;53.148;8.204;2023-08-17T12:53:30;102123.25;;;23.16;100.00
49216;BME280;45943;53.148;8.204;2023-08-17T12:55:56;102131.28;;;23.10;100.00